Cincinnatus, New York
Current Conditions -  °F | °C
As of 2:35 AM on Sunday 23 Nov 2014 (Local Time) from KN03 Reporting Station
Haze Haze  
Wind Chill: 37°   Ceiling: 3900
Heat Index: 37°   Visibility: 5mi
Dew Point: 37°   Wind: 0mph
Humidity: 100%   Direction: NA
Pressure: 30.06"   Gusts: NA
Location:  42.54°N, 75.9°W
Report Text: KN03 230735Z AUTO 00000KT 5SM BR OVC039 03/03 A3006 RMK AO2
Loading
Personal Weather Stations






























Interactive Weather Map New forecast layout! Learn more

10-Day Weather Forecast

Advertisements
Track Severe Weather on mobile